5C1

Boerne Stage Field Airport

San Antonio, Texas, USA
METAR K5C1 230915Z AUTO 00000KT 10SM CLR 08/06 A3009 RMK AO1
Observed Flight Rules
Apr-23 @ 09:15 UTC (24 minutes ago) Visual Flight Rules
Visibility Clouds
10 miles
  • Clear skies
Temperatures Readings
Current 8°C / 46°F
Dewpoint 6°C / 43°F
Humidity 87%
Altimeter 30.09" Hg
Pressure 1019 hPa
Elevation 423
METAR K5C1 230915Z AUTO 00000KT 10SM CLR 08/06 A3009 RMK AO1
Observed Flight Rules
Apr-23 @ 09:15 UTC
(24 minutes ago)
VFR
Clouds
  • Clear skies
Temperature Dewpoint
8°C / 46°F 6°C / 43°F
Humidity Altimeter Pressure
87% 30.09" Hg 1019 hPa